sensor_id;sensor_type;location;lat;lon;timestamp;pressure;altitude;pressure_sealevel;temperature;humidity
15260;BME280;34462;51.368;12.364;2022-10-04T00:02:27;18631.19;;;-141.84;79.64
15260;BME280;34462;51.368;12.364;2022-10-04T00:05:03;18647.44;;;-141.84;80.28
15260;BME280;34462;51.368;12.364;2022-10-04T00:07:36;18659.63;;;-141.84;80.58
15260;BME280;34462;51.368;12.364;2022-10-04T00:10:16;18602.75;;;-141.84;80.83
15260;BME280;34462;51.368;12.364;2022-10-04T00:12:50;18627.13;;;-141.84;81.14
15260;BME280;34462;51.368;12.364;2022-10-04T00:15:23;18568.19;;;-141.84;81.27
15260;BME280;34462;51.368;12.364;2022-10-04T00:18:17;18576.31;;;-141.84;81.83
15260;BME280;34462;51.368;12.364;2022-10-04T00:21:07;18539.75;;;-141.84;82.37
15260;BME280;34462;51.368;12.364;2022-10-04T00:23:46;18531.63;;;-141.84;82.51
15260;BME280;34462;51.368;12.364;2022-10-04T00:29:38;18535.69;;;-141.84;82.49
15260;BME280;34462;51.368;12.364;2022-10-04T00:32:29;18529.59;;;-141.84;82.52
15260;BME280;34462;51.368;12.364;2022-10-04T00:34:58;18525.53;;;-141.84;82.53
15260;BME280;34462;51.368;12.364;2022-10-04T00:37:55;18513.34;;;-141.84;82.37
15260;BME280;34462;51.368;12.364;2022-10-04T00:40:26;18529.59;;;-141.84;82.19
15260;BME280;34462;51.368;12.364;2022-10-04T00:42:58;18470.69;;;-141.84;82.21
15260;BME280;34462;51.368;12.364;2022-10-04T00:45:34;18497.09;;;-141.84;82.21
15260;BME280;34462;51.368;12.364;2022-10-04T00:48:28;18519.44;;;-141.84;81.88
15260;BME280;34462;51.368;12.364;2022-10-04T00:51:06;18480.84;;;-141.84;81.82
15260;BME280;34462;51.368;12.364;2022-10-04T00:53:58;18513.34;;;-141.84;81.36
15260;BME280;34462;51.368;12.364;2022-10-04T00:56:36;18515.38;;;-141.84;81.46
15260;BME280;34462;51.368;12.364;2022-10-04T00:59:30;18507.25;;;-141.84;81.44
15260;BME280;34462;51.368;12.364;2022-10-04T01:02:05;18525.53;;;-141.84;81.43
15260;BME280;34462;51.368;12.364;2022-10-04T01:04:45;18513.34;;;-141.84;81.04
15260;BME280;34462;51.368;12.364;2022-10-04T01:07:20;18521.47;;;-141.84;80.79
15260;BME280;34462;51.368;12.364;2022-10-04T01:09:57;18452.41;;;-141.84;80.98
15260;BME280;34462;51.368;12.364;2022-10-04T01:12:40;18501.16;;;-141.84;81.31
15260;BME280;34462;51.368;12.364;2022-10-04T01:15:17;18503.19;;;-141.84;81.00
15260;BME280;34462;51.368;12.364;2022-10-04T01:18:08;18503.19;;;-141.84;80.99
15260;BME280;34462;51.368;12.364;2022-10-04T01:20:39;18480.84;;;-141.84;80.87
15260;BME280;34462;51.368;12.364;2022-10-04T01:26:40;18497.09;;;-141.84;79.89
15260;BME280;34462;51.368;12.364;2022-10-04T01:29:13;18497.09;;;-141.84;79.98
15260;BME280;34462;51.368;12.364;2022-10-04T01:31:45;18486.94;;;-141.84;79.37
15260;BME280;34462;51.368;12.364;2022-10-04T01:34:17;18501.16;;;-141.84;79.21
15260;BME280;34462;51.368;12.364;2022-10-04T01:36:47;18519.44;;;-141.84;79.15
15260;BME280;34462;51.368;12.364;2022-10-04T01:39:20;18547.88;;;-141.84;78.43
15260;BME280;34462;51.368;12.364;2022-10-04T01:41:56;18602.75;;;-141.84;77.34
15260;BME280;34462;51.368;12.364;2022-10-04T01:44:31;18558.03;;;-141.84;77.56
15260;BME280;34462;51.368;12.364;2022-10-04T01:47:07;18558.03;;;-141.84;78.19
15260;BME280;34462;51.368;12.364;2022-10-04T01:49:43;18531.63;;;-141.84;78.02
15260;BME280;34462;51.368;12.364;2022-10-04T01:52:19;18572.25;;;-141.84;78.86
15260;BME280;34462;51.368;12.364;2022-10-04T01:54:57;18509.28;;;-141.84;78.98
15260;BME280;34462;51.368;12.364;2022-10-04T01:57:34;18556.00;;;-141.84;78.94
15260;BME280;34462;51.368;12.364;2022-10-04T02:00:07;18533.66;;;-141.84;78.49
15260;BME280;34462;51.368;12.364;2022-10-04T02:02:40;18521.47;;;-141.84;78.98
15260;BME280;34462;51.368;12.364;2022-10-04T02:05:15;18543.81;;;-141.84;78.22
15260;BME280;34462;51.368;12.364;2022-10-04T02:07:46;18503.19;;;-141.84;78.64
15260;BME280;34462;51.368;12.364;2022-10-04T02:10:19;18525.53;;;-141.84;79.23
15260;BME280;34462;51.368;12.364;2022-10-04T02:12:51;18529.59;;;-141.84;79.42
15260;BME280;34462;51.368;12.364;2022-10-04T02:15:23;18509.28;;;-141.84;79.05
15260;BME280;34462;51.368;12.364;2022-10-04T02:17:55;18523.50;;;-141.84;77.98
15260;BME280;34462;51.368;12.364;2022-10-04T02:20:25;18543.81;;;-141.84;77.96
15260;BME280;34462;51.368;12.364;2022-10-04T02:22:57;18517.41;;;-141.84;78.25
15260;BME280;34462;51.368;12.364;2022-10-04T02:25:30;18551.94;;;-141.84;78.50
15260;BME280;34462;51.368;12.364;2022-10-04T02:28:00;18505.22;;;-141.84;78.74
15260;BME280;34462;51.368;12.364;2022-10-04T02:30:34;18545.84;;;-141.84;78.95
15260;BME280;34462;51.368;12.364;2022-10-04T02:33:03;18503.19;;;-141.84;78.26
15260;BME280;34462;51.368;12.364;2022-10-04T02:35:34;18478.81;;;-141.84;78.95
15260;BME280;34462;51.368;12.364;2022-10-04T02:38:15;18468.66;;;-141.84;79.73
15260;BME280;34462;51.368;12.364;2022-10-04T02:40:52;18452.41;;;-141.84;80.55
15260;BME280;34462;51.368;12.364;2022-10-04T02:43:29;18421.91;;;-141.84;80.95
15260;BME280;34462;51.368;12.364;2022-10-04T02:46:07;18409.72;;;-141.84;81.33
15260;BME280;34462;51.368;12.364;2022-10-04T02:48:45;18440.22;;;-141.84;81.42
15260;BME280;34462;51.368;12.364;2022-10-04T02:51:21;18338.63;;;-141.84;82.07
15260;BME280;34462;51.368;12.364;2022-10-04T02:54:00;18393.47;;;-141.84;82.69
15260;BME280;34462;51.368;12.364;2022-10-04T02:56:31;18363.00;;;-141.84;83.27
15260;BME280;34462;51.368;12.364;2022-10-04T02:59:02;18358.94;;;-141.84;83.25
15260;BME280;34462;51.368;12.364;2022-10-04T03:01:47;18367.06;;;-141.84;83.20
15260;BME280;34462;51.368;12.364;2022-10-04T03:04:19;18358.94;;;-141.84;82.58
15260;BME280;34462;51.368;12.364;2022-10-04T03:06:50;18371.13;;;-141.84;82.12
15260;BME280;34462;51.368;12.364;2022-10-04T03:09:21;18356.91;;;-141.84;81.93
15260;BME280;34462;51.368;12.364;2022-10-04T03:11:56;18381.28;;;-141.84;82.08
15260;BME280;34462;51.368;12.364;2022-10-04T03:14:27;18318.31;;;-141.84;82.33
15260;BME280;34462;51.368;12.364;2022-10-04T03:16:58;18314.25;;;-141.84;82.38
15260;BME280;34462;51.368;12.364;2022-10-04T03:19:32;18338.63;;;-141.84;82.63
15260;BME280;34462;51.368;12.364;2022-10-04T03:22:06;18340.66;;;-141.84;82.58
15260;BME280;34462;51.368;12.364;2022-10-04T03:24:42;18354.88;;;-141.84;82.31
15260;BME280;34462;51.368;12.364;2022-10-04T03:27:16;18373.16;;;-141.84;81.81
15260;BME280;34462;51.368;12.364;2022-10-04T03:29:48;18326.44;;;-141.84;81.70
15260;BME280;34462;51.368;12.364;2022-10-04T03:32:21;18324.41;;;-141.84;82.30
15260;BME280;34462;51.368;12.364;2022-10-04T03:34:55;18261.44;;;-141.84;82.71
15260;BME280;34462;51.368;12.364;2022-10-04T03:37:27;18334.56;;;-141.84;82.35
15260;BME280;34462;51.368;12.364;2022-10-04T03:39:57;18320.34;;;-141.84;82.00
15260;BME280;34462;51.368;12.364;2022-10-04T03:42:29;18289.88;;;-141.84;82.20
15260;BME280;34462;51.368;12.364;2022-10-04T03:45:03;18304.09;;;-141.84;82.28
15260;BME280;34462;51.368;12.364;2022-10-04T03:47:37;18289.88;;;-141.84;82.63
15260;BME280;34462;51.368;12.364;2022-10-04T03:50:19;18289.88;;;-141.84;83.22
15260;BME280;34462;51.368;12.364;2022-10-04T03:52:52;18259.41;;;-141.84;83.73
15260;BME280;34462;51.368;12.364;2022-10-04T03:55:29;18243.16;;;-141.84;83.22
15260;BME280;34462;51.368;12.364;2022-10-04T03:57:59;18289.88;;;-141.84;83.68
15260;BME280;34462;51.368;12.364;2022-10-04T04:00:30;18287.84;;;-141.84;83.75
15260;BME280;34462;51.368;12.364;2022-10-04T04:03:02;18261.44;;;-141.84;83.32
15260;BME280;34462;51.368;12.364;2022-10-04T04:05:40;18261.44;;;-141.84;83.73
15260;BME280;34462;51.368;12.364;2022-10-04T04:08:16;18259.41;;;-141.84;84.21
15260;BME280;34462;51.368;12.364;2022-10-04T04:10:51;18235.00;;;-141.84;83.66
15260;BME280;34462;51.368;12.364;2022-10-04T04:13:26;18247.22;;;-141.84;83.26
15260;BME280;34462;51.368;12.364;2022-10-04T04:16:00;18216.72;;;-141.84;83.39
15260;BME280;34462;51.368;12.364;2022-10-04T04:18:32;18232.97;;;-141.84;83.34
15260;BME280;34462;51.368;12.364;2022-10-04T04:21:04;18235.00;;;-141.84;82.88
15260;BME280;34462;51.368;12.364;2022-10-04T04:23:36;18204.53;;;-141.84;83.50
15260;BME280;34462;51.368;12.364;2022-10-04T04:26:17;18204.53;;;-141.84;83.68
15260;BME280;34462;51.368;12.364;2022-10-04T04:28:50;18174.06;;;-141.84;83.58
15260;BME280;34462;51.368;12.364;2022-10-04T04:31:25;18222.81;;;-141.84;83.15
15260;BME280;34462;51.368;12.364;2022-10-04T04:33:58;18247.22;;;-141.84;82.83
15260;BME280;34462;51.368;12.364;2022-10-04T04:36:29;18224.84;;;-141.84;81.82
15260;BME280;34462;51.368;12.364;2022-10-04T04:39:08;18220.78;;;-141.84;82.17
15260;BME280;34462;51.368;12.364;2022-10-04T04:41:50;18237.06;;;-141.84;81.85
15260;BME280;34462;51.368;12.364;2022-10-04T04:44:19;18251.28;;;-141.84;81.73
15260;BME280;34462;51.368;12.364;2022-10-04T04:46:48;18249.25;;;-141.84;81.66
15260;BME280;34462;51.368;12.364;2022-10-04T04:49:17;18220.78;;;-141.84;81.94
15260;BME280;34462;51.368;12.364;2022-10-04T04:51:49;18220.78;;;-141.84;82.63
15260;BME280;34462;51.368;12.364;2022-10-04T04:54:22;18214.69;;;-141.84;82.57
15260;BME280;34462;51.368;12.364;2022-10-04T04:56:54;18228.91;;;-141.84;82.69
15260;BME280;34462;51.368;12.364;2022-10-04T04:59:24;18251.28;;;-141.84;81.80
15260;BME280;34462;51.368;12.364;2022-10-04T05:01:55;18235.00;;;-141.84;81.52
15260;BME280;34462;51.368;12.364;2022-10-04T05:04:23;18257.38;;;-141.84;80.58
15260;BME280;34462;51.368;12.364;2022-10-04T05:07:01;18263.47;;;-141.84;80.69
15260;BME280;34462;51.368;12.364;2022-10-04T05:09:32;18277.69;;;-141.84;80.90
15260;BME280;34462;51.368;12.364;2022-10-04T05:12:09;18263.47;;;-141.84;80.30
15260;BME280;34462;51.368;12.364;2022-10-04T05:14:46;18273.63;;;-141.84;80.02
15260;BME280;34462;51.368;12.364;2022-10-04T05:17:21;18285.81;;;-141.84;79.98
15260;BME280;34462;51.368;12.364;2022-10-04T05:19:55;18235.00;;;-141.84;80.55
15260;BME280;34462;51.368;12.364;2022-10-04T05:22:26;18257.38;;;-141.84;81.24
15260;BME280;34462;51.368;12.364;2022-10-04T05:24:59;18289.88;;;-141.84;80.27
15260;BME280;34462;51.368;12.364;2022-10-04T05:27:34;18293.94;;;-141.84;79.56
15260;BME280;34462;51.368;12.364;2022-10-04T05:30:08;18326.44;;;-141.84;79.50
15260;BME280;34462;51.368;12.364;2022-10-04T05:32:53;18306.13;;;-141.84;78.96
15260;BME280;34462;51.368;12.364;2022-10-04T05:35:27;18334.56;;;-141.84;78.97
15260;BME280;34462;51.368;12.364;2022-10-04T05:38:04;18338.63;;;-141.84;77.93
15260;BME280;34462;51.368;12.364;2022-10-04T05:40:43;18344.72;;;-141.84;77.62
15260;BME280;34462;51.368;12.364;2022-10-04T05:43:31;18367.06;;;-141.84;76.91
15260;BME280;34462;51.368;12.364;2022-10-04T05:46:20;18387.38;;;-141.84;76.03
15260;BME280;34462;51.368;12.364;2022-10-04T05:48:54;18397.53;;;-141.84;76.26
15260;BME280;34462;51.368;12.364;2022-10-04T05:51:25;18448.34;;;-141.84;74.98
15260;BME280;34462;51.368;12.364;2022-10-04T05:53:59;18415.81;;;-141.84;76.21
15260;BME280;34462;51.368;12.364;2022-10-04T05:57:10;18438.19;;;-141.84;75.54
15260;BME280;34462;51.368;12.364;2022-10-04T06:00:00;18486.94;;;-141.84;75.24
15260;BME280;34462;51.368;12.364;2022-10-04T06:05:49;18495.06;;;-141.84;75.70
15260;BME280;34462;51.368;12.364;2022-10-04T06:08:35;18497.09;;;-141.84;75.19
15260;BME280;34462;51.368;12.364;2022-10-04T06:11:29;18547.88;;;-141.84;74.43
15260;BME280;34462;51.368;12.364;2022-10-04T06:14:21;18562.09;;;-141.84;73.59
15260;BME280;34462;51.368;12.364;2022-10-04T06:17:11;18568.19;;;-141.84;73.47
15260;BME280;34462;51.368;12.364;2022-10-04T06:23:01;18584.47;;;-141.84;72.56
15260;BME280;34462;51.368;12.364;2022-10-04T06:25:41;18553.97;;;-141.84;73.39
15260;BME280;34462;51.368;12.364;2022-10-04T06:28:18;18596.66;;;-141.84;73.14
15260;BME280;34462;51.368;12.364;2022-10-04T06:31:11;18637.28;;;-141.84;71.65
15260;BME280;34462;51.368;12.364;2022-10-04T06:34:25;18679.94;;;-141.84;71.53
15260;BME280;34462;51.368;12.364;2022-10-04T06:37:20;18643.38;;;-141.84;72.22
15260;BME280;34462;51.368;12.364;2022-10-04T06:40:19;18637.28;;;-141.84;71.99
15260;BME280;34462;51.368;12.364;2022-10-04T06:43:22;18686.03;;;-141.84;71.56
15260;BME280;34462;51.368;12.364;2022-10-04T06:46:09;18698.22;;;-141.84;71.48
15260;BME280;34462;51.368;12.364;2022-10-04T06:49:14;18686.03;;;-141.84;71.40
15260;BME280;34462;51.368;12.364;2022-10-04T06:52:12;18708.41;;;-141.84;71.47
15260;BME280;34462;51.368;12.364;2022-10-04T06:58:37;18692.13;;;-141.84;72.01
15260;BME280;34462;51.368;12.364;2022-10-04T07:01:23;18688.06;;;-141.84;72.38
15260;BME280;34462;51.368;12.364;2022-10-04T07:04:02;18726.69;;;-141.84;70.98
15260;BME280;34462;51.368;12.364;2022-10-04T07:06:41;18828.28;;;-141.84;70.21
15260;BME280;34462;51.368;12.364;2022-10-04T07:09:20;18846.56;;;-141.84;69.01
15260;BME280;34462;51.368;12.364;2022-10-04T07:11:59;18856.72;;;-141.84;69.02
15260;BME280;34462;51.368;12.364;2022-10-04T07:14:36;18807.94;;;-141.84;69.89
15260;BME280;34462;51.368;12.364;2022-10-04T07:17:13;18826.25;;;-141.84;69.50
15260;BME280;34462;51.368;12.364;2022-10-04T07:19:47;18842.50;;;-141.84;69.33
15260;BME280;34462;51.368;12.364;2022-10-04T07:22:23;18836.41;;;-141.84;69.38
15260;BME280;34462;51.368;12.364;2022-10-04T07:25:04;18877.03;;;-141.84;69.57
15260;BME280;34462;51.368;12.364;2022-10-04T07:27:48;18960.34;;;-141.84;67.96
15260;BME280;34462;51.368;12.364;2022-10-04T07:30:47;19039.59;;;-141.84;66.79
15260;BME280;34462;51.368;12.364;2022-10-04T07:33:24;19096.47;;;-141.84;66.64
15260;BME280;34462;51.368;12.364;2022-10-04T07:36:02;19114.78;;;-141.84;66.47
15260;BME280;34462;51.368;12.364;2022-10-04T07:38:43;19057.88;;;-141.84;67.06
15260;BME280;34462;51.368;12.364;2022-10-04T07:41:21;19106.66;;;-141.84;66.59
15260;BME280;34462;51.368;12.364;2022-10-04T07:43:57;19216.38;;;-141.84;65.39
15260;BME280;34462;51.368;12.364;2022-10-04T07:46:44;19206.22;;;-141.84;65.88
15260;BME280;34462;51.368;12.364;2022-10-04T07:49:17;19273.28;;;-141.84;64.80
15260;BME280;34462;51.368;12.364;2022-10-04T07:52:17;19332.19;;;-141.84;64.40
15260;BME280;34462;51.368;12.364;2022-10-04T07:54:55;19317.97;;;-141.84;65.13
15260;BME280;34462;51.368;12.364;2022-10-04T07:57:35;19452.09;;;-141.84;63.75
15260;BME280;34462;51.368;12.364;2022-10-04T08:00:15;19399.25;;;-141.84;64.71
15260;BME280;34462;51.368;12.364;2022-10-04T08:03:08;19523.22;;;-141.84;62.58
15260;BME280;34462;51.368;12.364;2022-10-04T08:05:40;19618.75;;;-141.84;62.18
15260;BME280;34462;51.368;12.364;2022-10-04T08:08:32;19604.50;;;-141.84;62.70
15260;BME280;34462;51.368;12.364;2022-10-04T08:11:20;19574.03;;;-141.84;62.57
15260;BME280;34462;51.368;12.364;2022-10-04T08:14:00;19665.47;;;-141.84;61.92
15260;BME280;34462;51.368;12.364;2022-10-04T08:16:36;19637.03;;;-141.84;62.16
15260;BME280;34462;51.368;12.364;2022-10-04T08:19:35;19620.78;;;-141.84;62.58
15260;BME280;34462;51.368;12.364;2022-10-04T08:22:23;19716.28;;;-141.84;62.04
15260;BME280;34462;51.368;12.364;2022-10-04T08:25:03;19669.53;;;-141.84;62.56
15260;BME280;34462;51.368;12.364;2022-10-04T08:27:52;19722.38;;;-141.84;61.59
15260;BME280;34462;51.368;12.364;2022-10-04T08:31:06;19850.41;;;-141.84;60.09
15260;BME280;34462;51.368;12.364;2022-10-04T08:33:55;19939.84;;;-141.84;59.63
15260;BME280;34462;51.368;12.364;2022-10-04T08:36:41;19960.16;;;-141.84;59.79
15260;BME280;34462;51.368;12.364;2022-10-04T08:39:29;19876.84;;;-141.84;61.13
15260;BME280;34462;51.368;12.364;2022-10-04T08:42:45;19862.63;;;-141.84;61.10
15260;BME280;34462;51.368;12.364;2022-10-04T08:46:00;19866.69;;;-141.84;61.33
15260;BME280;34462;51.368;12.364;2022-10-04T08:49:24;19872.78;;;-141.84;61.02
15260;BME280;34462;51.368;12.364;2022-10-04T08:52:35;19862.63;;;-141.84;60.58
15260;BME280;34462;51.368;12.364;2022-10-04T08:55:52;19947.97;;;-141.84;60.21
15260;BME280;34462;51.368;12.364;2022-10-04T09:02:00;19958.13;;;-141.84;60.70
15260;BME280;34462;51.368;12.364;2022-10-04T09:05:29;19964.25;;;-141.84;60.32
15260;BME280;34462;51.368;12.364;2022-10-04T09:08:53;20132.94;;;-141.84;58.73
15260;BME280;34462;51.368;12.364;2022-10-04T09:12:08;20124.81;;;-141.84;58.89
15260;BME280;34462;51.368;12.364;2022-10-04T09:15:06;20110.56;;;-141.84;59.20
15260;BME280;34462;51.368;12.364;2022-10-04T09:17:52;20043.50;;;-141.84;60.05
15260;BME280;34462;51.368;12.364;2022-10-04T09:20:32;20110.56;;;-141.84;59.17
15260;BME280;34462;51.368;12.364;2022-10-04T09:23:29;20108.53;;;-141.84;59.06
15260;BME280;34462;51.368;12.364;2022-10-04T09:26:20;20200.00;;;-141.84;57.90
15260;BME280;34462;51.368;12.364;2022-10-04T09:29:30;20171.56;;;-141.84;58.24
15260;BME280;34462;51.368;12.364;2022-10-04T09:39:09;20151.22;;;-141.84;59.21
15260;BME280;34462;51.368;12.364;2022-10-04T09:42:38;20116.66;;;-141.84;59.11
15260;BME280;34462;51.368;12.364;2022-10-04T09:45:46;20149.19;;;-141.84;58.80
15260;BME280;34462;51.368;12.364;2022-10-04T09:48:34;20200.00;;;-141.84;58.70
15260;BME280;34462;51.368;12.364;2022-10-04T09:54:45;20059.75;;;-141.84;60.56
15260;BME280;34462;51.368;12.364;2022-10-04T09:57:28;20027.25;;;-141.84;61.14
15260;BME280;34462;51.368;12.364;2022-10-04T10:00:13;20045.53;;;-141.84;60.18
15260;BME280;34462;51.368;12.364;2022-10-04T10:03:39;20130.91;;;-141.84;59.30
15260;BME280;34462;51.368;12.364;2022-10-04T10:06:56;20197.97;;;-141.84;58.49
15260;BME280;34462;51.368;12.364;2022-10-04T10:09:39;20191.88;;;-141.84;58.49
15260;BME280;34462;51.368;12.364;2022-10-04T10:12:51;20224.41;;;-141.84;58.09
15260;BME280;34462;51.368;12.364;2022-10-04T10:15:54;20187.81;;;-141.84;58.09
15260;BME280;34462;51.368;12.364;2022-10-04T10:18:44;20228.47;;;-141.84;58.02
15260;BME280;34462;51.368;12.364;2022-10-04T10:21:36;20303.66;;;-141.84;56.98
15260;BME280;34462;51.368;12.364;2022-10-04T10:27:52;20305.69;;;-141.84;57.88
15260;BME280;34462;51.368;12.364;2022-10-04T10:30:28;20273.19;;;-141.84;57.20
15260;BME280;34462;51.368;12.364;2022-10-04T10:33:38;20283.34;;;-141.84;56.92
15260;BME280;34462;51.368;12.364;2022-10-04T10:36:44;20330.09;;;-141.84;56.08
15260;BME280;34462;51.368;12.364;2022-10-04T10:39:51;20433.75;;;-141.84;54.75
15260;BME280;34462;51.368;12.364;2022-10-04T10:42:58;20374.81;;;-141.84;55.14
15260;BME280;34462;51.368;12.364;2022-10-04T10:46:18;20387.00;;;-141.84;55.17
15260;BME280;34462;51.368;12.364;2022-10-04T10:49:17;20393.09;;;-141.84;54.46
15260;BME280;34462;51.368;12.364;2022-10-04T10:55:43;20541.50;;;-141.84;51.61
15260;BME280;34462;51.368;12.364;2022-10-04T10:59:11;20578.09;;;-141.84;50.87
15260;BME280;34462;51.368;12.364;2022-10-04T11:02:23;20537.44;;;-141.84;51.21
15260;BME280;34462;51.368;12.364;2022-10-04T11:05:50;20614.66;;;-141.84;50.23
15260;BME280;34462;51.368;12.364;2022-10-04T11:12:32;20643.13;;;-141.84;50.62
15260;BME280;34462;51.368;12.364;2022-10-04T11:15:42;20643.13;;;-141.84;51.11
15260;BME280;34462;51.368;12.364;2022-10-04T11:25:28;20580.13;;;-141.84;52.71
15260;BME280;34462;51.368;12.364;2022-10-04T11:28:11;20565.88;;;-141.84;53.63
15260;BME280;34462;51.368;12.364;2022-10-04T11:31:42;20539.47;;;-141.84;53.72
15260;BME280;34462;51.368;12.364;2022-10-04T11:34:59;20565.88;;;-141.84;53.46
15260;BME280;34462;51.368;12.364;2022-10-04T11:37:55;20606.53;;;-141.84;53.49
15260;BME280;34462;51.368;12.364;2022-10-04T11:40:45;20614.66;;;-141.84;52.35
15260;BME280;34462;51.368;12.364;2022-10-04T11:43:43;20620.78;;;-141.84;52.28
15260;BME280;34462;51.368;12.364;2022-10-04T11:46:31;20622.81;;;-141.84;51.99
15260;BME280;34462;51.368;12.364;2022-10-04T11:52:36;20767.13;;;-141.84;50.87
15260;BME280;34462;51.368;12.364;2022-10-04T11:55:46;20748.84;;;-141.84;51.28
15260;BME280;34462;51.368;12.364;2022-10-04T11:58:35;20756.97;;;-141.84;50.68
15260;BME280;34462;51.368;12.364;2022-10-04T12:02:07;20767.13;;;-141.84;50.07
15260;BME280;34462;51.368;12.364;2022-10-04T12:08:26;20765.09;;;-141.84;49.92
15260;BME280;34462;51.368;12.364;2022-10-04T12:11:23;20809.81;;;-141.84;49.20
15260;BME280;34462;51.368;12.364;2022-10-04T12:14:36;20876.91;;;-141.84;49.11
15260;BME280;34462;51.368;12.364;2022-10-04T12:17:56;20909.44;;;-141.84;47.88
15260;BME280;34462;51.368;12.364;2022-10-04T12:21:02;20923.66;;;-141.84;48.67
15260;BME280;34462;51.368;12.364;2022-10-04T12:23:52;20923.66;;;-141.84;48.41
15260;BME280;34462;51.368;12.364;2022-10-04T12:27:11;20944.00;;;-141.84;48.28
15260;BME280;34462;51.368;12.364;2022-10-04T12:30:21;20885.03;;;-141.84;47.62
15260;BME280;34462;51.368;12.364;2022-10-04T12:32:59;20876.91;;;-141.84;47.61
15260;BME280;34462;51.368;12.364;2022-10-04T12:35:46;20889.09;;;-141.84;47.93
15260;BME280;34462;51.368;12.364;2022-10-04T12:38:43;20870.81;;;-141.84;48.26
15260;BME280;34462;51.368;12.364;2022-10-04T12:41:41;20931.78;;;-141.84;48.52
15260;BME280;34462;51.368;12.364;2022-10-04T12:44:34;20903.34;;;-141.84;48.30
15260;BME280;34462;51.368;12.364;2022-10-04T12:50:52;20897.25;;;-141.84;48.68
15260;BME280;34462;51.368;12.364;2022-10-04T12:53:41;20846.41;;;-141.84;48.32
15260;BME280;34462;51.368;12.364;2022-10-04T12:56:41;20864.72;;;-141.84;48.57
15260;BME280;34462;51.368;12.364;2022-10-04T12:59:50;20850.47;;;-141.84;48.38
15260;BME280;34462;51.368;12.364;2022-10-04T13:05:36;20842.34;;;-141.84;48.46
15260;BME280;34462;51.368;12.364;2022-10-04T13:08:25;20826.09;;;-141.84;48.58
15260;BME280;34462;51.368;12.364;2022-10-04T13:11:39;20905.38;;;-141.84;47.63
15260;BME280;34462;51.368;12.364;2022-10-04T13:14:41;20858.59;;;-141.84;47.82
15260;BME280;34462;51.368;12.364;2022-10-04T13:17:28;20846.41;;;-141.84;48.03
15260;BME280;34462;51.368;12.364;2022-10-04T13:20:34;20866.75;;;-141.84;48.33
15260;BME280;34462;51.368;12.364;2022-10-04T13:23:15;20895.19;;;-141.84;49.12
15260;BME280;34462;51.368;12.364;2022-10-04T13:26:09;20872.84;;;-141.84;48.97
15260;BME280;34462;51.368;12.364;2022-10-04T13:28:50;20883.00;;;-141.84;49.22
15260;BME280;34462;51.368;12.364;2022-10-04T13:31:34;20880.97;;;-141.84;48.96
15260;BME280;34462;51.368;12.364;2022-10-04T13:34:22;20864.72;;;-141.84;48.87
15260;BME280;34462;51.368;12.364;2022-10-04T13:37:16;20911.47;;;-141.84;49.29
15260;BME280;34462;51.368;12.364;2022-10-04T13:40:27;20887.06;;;-141.84;49.10
15260;BME280;34462;51.368;12.364;2022-10-04T13:43:20;20913.50;;;-141.84;49.62
15260;BME280;34462;51.368;12.364;2022-10-04T13:46:11;20870.81;;;-141.84;49.73
15260;BME280;34462;51.368;12.364;2022-10-04T13:48:58;20856.56;;;-141.84;49.32
15260;BME280;34462;51.368;12.364;2022-10-04T13:51:48;20907.41;;;-141.84;49.28
15260;BME280;34462;51.368;12.364;2022-10-04T13:54:55;20846.41;;;-141.84;49.81
15260;BME280;34462;51.368;12.364;2022-10-04T13:57:50;20838.28;;;-141.84;49.46
15260;BME280;34462;51.368;12.364;2022-10-04T14:00:56;20858.59;;;-141.84;48.48
15260;BME280;34462;51.368;12.364;2022-10-04T14:03:46;20880.97;;;-141.84;49.17
15260;BME280;34462;51.368;12.364;2022-10-04T14:06:51;20826.09;;;-141.84;49.77
15260;BME280;34462;51.368;12.364;2022-10-04T14:09:44;20878.94;;;-141.84;49.03
15260;BME280;34462;51.368;12.364;2022-10-04T14:16:17;20838.28;;;-141.84;48.29
15260;BME280;34462;51.368;12.364;2022-10-04T14:19:16;20868.78;;;-141.84;48.16
15260;BME280;34462;51.368;12.364;2022-10-04T14:22:32;20777.28;;;-141.84;49.14
15260;BME280;34462;51.368;12.364;2022-10-04T14:25:38;20803.72;;;-141.84;49.58
15260;BME280;34462;51.368;12.364;2022-10-04T14:28:28;20789.50;;;-141.84;48.96
15260;BME280;34462;51.368;12.364;2022-10-04T14:31:41;20787.47;;;-141.84;49.13
15260;BME280;34462;51.368;12.364;2022-10-04T14:34:48;20761.03;;;-141.84;49.71
15260;BME280;34462;51.368;12.364;2022-10-04T14:38:03;20769.16;;;-141.84;49.67
15260;BME280;34462;51.368;12.364;2022-10-04T14:44:40;20736.63;;;-141.84;49.17
15260;BME280;34462;51.368;12.364;2022-10-04T14:47:34;20742.75;;;-141.84;49.95
15260;BME280;34462;51.368;12.364;2022-10-04T14:50:22;20750.88;;;-141.84;50.00
15260;BME280;34462;51.368;12.364;2022-10-04T14:53:19;20763.06;;;-141.84;50.11
15260;BME280;34462;51.368;12.364;2022-10-04T14:56:09;20728.50;;;-141.84;50.45
15260;BME280;34462;51.368;12.364;2022-10-04T14:58:58;20704.13;;;-141.84;50.64
15260;BME280;34462;51.368;12.364;2022-10-04T15:01:32;20700.03;;;-141.84;51.16
15260;BME280;34462;51.368;12.364;2022-10-04T15:04:21;20689.88;;;-141.84;51.71
15260;BME280;34462;51.368;12.364;2022-10-04T15:06:58;20669.56;;;-141.84;51.92
15260;BME280;34462;51.368;12.364;2022-10-04T15:09:53;20706.16;;;-141.84;52.18
15260;BME280;34462;51.368;12.364;2022-10-04T15:12:59;20647.19;;;-141.84;52.66
15260;BME280;34462;51.368;12.364;2022-10-04T15:16:04;20632.97;;;-141.84;52.63
15260;BME280;34462;51.368;12.364;2022-10-04T15:18:53;20649.22;;;-141.84;53.06